createdAt,value
2017-07-03T00:00:05.529Z,64.24
2017-07-03T00:00:31.101Z,64.24
2017-07-03T00:00:56.642Z,64.15
2017-07-03T00:01:22.198Z,64.37
2017-07-03T00:01:47.758Z,64.28
2017-07-03T00:02:13.345Z,64.34
2017-07-03T00:02:38.902Z,64.43
2017-07-03T00:03:04.458Z,64.56
2017-07-03T00:03:30.002Z,64.47
2017-07-03T00:04:23.823Z,64.43
2017-07-03T00:04:49.372Z,64.24
2017-07-03T00:05:14.918Z,64.24
2017-07-03T00:05:40.485Z,64.15
2017-07-03T00:06:06.039Z,64.24
2017-07-03T00:06:31.625Z,64.24
2017-07-03T00:06:57.192Z,64.43
2017-07-03T00:07:22.777Z,64.28
2017-07-03T00:07:48.377Z,64.18
2017-07-03T00:08:13.938Z,64.08
2017-07-03T00:08:39.527Z,64.18
2017-07-03T00:09:53.792Z,64.15
2017-07-03T00:10:19.357Z,63.98
2017-07-03T00:10:44.920Z,64.34
2017-07-03T00:11:10.470Z,64.24
2017-07-03T00:11:36.034Z,64.15
2017-07-03T00:12:01.586Z,63.95
2017-07-03T00:12:27.137Z,64.24
2017-07-03T00:12:52.708Z,64.28
2017-07-03T00:13:18.264Z,64.15
2017-07-03T00:13:43.828Z,64.24
2017-07-03T00:14:09.399Z,64.24
2017-07-03T00:14:34.961Z,64.15
2017-07-03T00:15:00.507Z,63.95
2017-07-03T00:15:26.172Z,64.18
2017-07-03T00:15:51.844Z,64.34
2017-07-03T00:16:17.439Z,64.24
2017-07-03T00:16:43.005Z,64.28
2017-07-03T00:17:08.559Z,64.24
2017-07-03T00:17:34.145Z,64.28
2017-07-03T00:17:59.732Z,64.05
2017-07-03T00:18:25.297Z,64.24
2017-07-03T00:18:50.843Z,64.24
2017-07-03T00:19:16.389Z,64.34
2017-07-03T00:19:41.988Z,64.05
2017-07-03T00:20:07.570Z,63.98
2017-07-03T00:20:33.126Z,63.95
2017-07-03T00:20:58.674Z,64.15
2017-07-03T00:21:24.246Z,64.24
2017-07-03T00:21:49.807Z,64.34
2017-07-03T00:22:15.387Z,64.15
2017-07-03T00:23:14.370Z,64.24
2017-07-03T00:23:39.977Z,64.28
2017-07-03T00:24:05.554Z,64.24
2017-07-03T00:24:31.137Z,64.34
2017-07-03T00:24:56.689Z,64.43
2017-07-03T00:25:22.237Z,64.34
2017-07-03T00:25:47.816Z,64.24
2017-07-03T00:26:13.378Z,64.34
2017-07-03T00:26:39.029Z,64.05
2017-07-03T00:27:04.699Z,64.05
2017-07-03T00:27:30.307Z,64.28
2017-07-03T00:27:55.895Z,64.05
2017-07-03T00:28:21.476Z,64.05
2017-07-03T00:28:47.051Z,64.15
2017-07-03T00:29:12.615Z,64.47
2017-07-03T00:29:38.182Z,64.24
2017-07-03T00:30:03.744Z,64.24
2017-07-03T00:30:29.304Z,64.05
2017-07-03T00:30:54.919Z,64.34
2017-07-03T00:31:20.456Z,64.43
2017-07-03T00:31:46.018Z,64.24
2017-07-03T00:32:11.613Z,64.05
2017-07-03T00:32:37.174Z,64.43
2017-07-03T00:33:02.753Z,64.37
2017-07-03T00:33:28.399Z,64.24
2017-07-03T00:33:53.936Z,63.95
2017-07-03T00:34:19.514Z,64.08
2017-07-03T00:34:45.131Z,64.05
2017-07-03T00:35:10.693Z,64.24
2017-07-03T00:35:36.254Z,64.24
2017-07-03T00:36:01.859Z,64.15
2017-07-03T00:36:27.420Z,64.24
2017-07-03T00:36:52.978Z,64.43
2017-07-03T00:37:18.573Z,64.43
2017-07-03T00:37:44.126Z,64.24
2017-07-03T00:38:09.687Z,64.34
2017-07-03T00:38:35.353Z,63.95
2017-07-03T00:39:00.915Z,64.24
2017-07-03T00:39:26.464Z,64.24
2017-07-03T00:39:52.040Z,64.43
2017-07-03T00:40:17.628Z,64.34
2017-07-03T00:40:43.195Z,64.24
2017-07-03T00:41:08.748Z,64.15
2017-07-03T00:41:34.311Z,64.05
2017-07-03T00:41:59.874Z,64.24
2017-07-03T00:42:25.517Z,64.28
2017-07-03T00:42:51.078Z,64.34
2017-07-03T00:43:16.631Z,64.37
2017-07-03T00:43:42.224Z,64.24
2017-07-03T00:44:07.839Z,64.24
2017-07-03T00:44:33.396Z,64.24
2017-07-03T00:44:58.977Z,64.37
2017-07-03T00:45:24.563Z,64.34
2017-07-03T00:45:50.125Z,64.15
2017-07-03T00:46:15.691Z,63.95
2017-07-03T00:46:41.321Z,64.24
2017-07-03T00:47:06.927Z,64.05
2017-07-03T00:47:32.448Z,64.24
2017-07-03T00:47:58.026Z,64.43
2017-07-03T00:48:23.585Z,64.15
2017-07-03T00:48:49.149Z,64.47
2017-07-03T00:49:14.774Z,64.43
2017-07-03T00:49:40.332Z,64.24
2017-07-03T00:50:05.893Z,64.43
2017-07-03T00:50:31.576Z,64.43
2017-07-03T00:50:57.134Z,64.43
2017-07-03T00:51:22.672Z,64.24
2017-07-03T00:51:48.243Z,64.24
2017-07-03T00:52:13.806Z,64.24
2017-07-03T00:52:39.360Z,64.15
2017-07-03T00:53:04.942Z,64.05
2017-07-03T00:53:30.505Z,64.15
2017-07-03T00:53:56.058Z,63.95
2017-07-03T00:54:21.692Z,64.24
2017-07-03T00:54:47.242Z,64.24
2017-07-03T00:55:12.809Z,64.24
2017-07-03T00:55:38.398Z,64.05
2017-07-03T00:56:03.983Z,64.24
2017-07-03T00:56:29.538Z,64.24
2017-07-03T00:56:55.132Z,64.05
2017-07-03T00:57:20.828Z,64.05
2017-07-03T00:57:46.377Z,64.24
2017-07-03T00:58:11.940Z,63.95
2017-07-03T00:58:37.494Z,64.05
2017-07-03T00:59:03.062Z,64.15
2017-07-03T00:59:28.615Z,64.43
2017-07-03T00:59:54.200Z,64.15
2017-07-03T01:00:19.772Z,64.15
2017-07-03T01:00:45.325Z,64.43
2017-07-03T01:01:10.899Z,64.24
2017-07-03T01:01:36.451Z,64.43
2017-07-03T01:02:02.066Z,64.43
2017-07-03T01:02:27.687Z,63.95
2017-07-03T01:02:53.259Z,64.24
2017-07-03T01:03:18.844Z,64.24
2017-07-03T01:03:44.465Z,64.24
2017-07-03T01:04:10.013Z,63.95
2017-07-03T01:04:35.573Z,64.15
2017-07-03T01:05:01.136Z,64.24
2017-07-03T01:05:26.688Z,64.05
2017-07-03T01:05:52.256Z,64.15
2017-07-03T01:06:17.908Z,64.15
2017-07-03T01:06:43.463Z,64.43
2017-07-03T01:07:09.041Z,64.24
2017-07-03T01:07:34.596Z,64.43
2017-07-03T01:08:00.146Z,64.24
2017-07-03T01:08:25.714Z,64.24
2017-07-03T01:08:51.333Z,64.53
2017-07-03T01:09:16.894Z,64.43
2017-07-03T01:09:42.453Z,64.43
2017-07-03T01:10:08.019Z,64.24
2017-07-03T01:10:33.625Z,64.43
2017-07-03T01:10:59.202Z,64.43
2017-07-03T01:11:24.746Z,64.34
2017-07-03T01:11:50.296Z,64.34
2017-07-03T01:12:15.874Z,64.24
2017-07-03T01:12:41.452Z,64.24
2017-07-03T01:13:07.111Z,64.43
2017-07-03T01:13:32.674Z,64.24
2017-07-03T01:13:58.230Z,64.24
2017-07-03T01:14:23.811Z,63.95
2017-07-03T01:14:49.362Z,64.24
2017-07-03T01:15:14.936Z,64.43
2017-07-03T01:15:40.519Z,64.43
2017-07-03T01:16:06.069Z,64.53
2017-07-03T01:16:31.632Z,64.05
2017-07-03T01:16:57.208Z,63.95
2017-07-03T01:17:22.850Z,64.15
2017-07-03T01:17:48.417Z,64.05
2017-07-03T01:18:13.960Z,63.95
2017-07-03T01:18:39.497Z,64.15
2017-07-03T01:19:05.058Z,64.24
2017-07-03T01:19:30.611Z,64.43
2017-07-03T01:19:56.238Z,64.24
2017-07-03T01:20:21.847Z,64.24
2017-07-03T01:20:47.421Z,64.24
2017-07-03T01:21:12.983Z,63.95
2017-07-03T01:21:38.566Z,64.24
2017-07-03T01:22:04.214Z,64.24
2017-07-03T01:22:29.787Z,64.53
2017-07-03T01:22:55.337Z,64.43
2017-07-03T01:23:21.053Z,64.24
2017-07-03T01:23:46.621Z,64.43
2017-07-03T01:24:12.181Z,64.24
2017-07-03T01:24:37.733Z,64.24
2017-07-03T01:25:03.282Z,64.05
2017-07-03T01:25:28.825Z,64.34
2017-07-03T01:25:54.396Z,64.24
2017-07-03T01:26:19.958Z,64.43
2017-07-03T01:26:45.528Z,64.24
2017-07-03T01:27:11.104Z,64.34
2017-07-03T01:27:36.670Z,64.34
2017-07-03T01:28:02.227Z,64.15
2017-07-03T01:28:27.827Z,63.95
2017-07-03T01:28:53.377Z,64.24
2017-07-03T01:29:18.933Z,64.53
2017-07-03T01:29:44.621Z,64.43
2017-07-03T01:30:10.306Z,64.43
2017-07-03T01:30:35.860Z,64.34
2017-07-03T01:31:01.423Z,64.24
2017-07-03T01:31:26.983Z,64.34
2017-07-03T01:31:52.538Z,64.34
2017-07-03T01:32:18.107Z,64.34
2017-07-03T01:32:43.689Z,64.43
2017-07-03T01:33:09.255Z,64.24
2017-07-03T01:33:34.812Z,64.24
2017-07-03T01:34:00.390Z,64.34
2017-07-03T01:34:25.933Z,64.24
2017-07-03T01:34:51.520Z,64.24
2017-07-03T01:35:17.177Z,64.34
2017-07-03T01:35:42.724Z,64.34
2017-07-03T01:36:08.307Z,64.24
2017-07-03T01:36:33.861Z,64.24
2017-07-03T01:36:59.428Z,64.15
2017-07-03T01:37:25.001Z,64.05
2017-07-03T01:37:50.581Z,64.15
2017-07-03T01:38:16.147Z,64.34
2017-07-03T01:38:41.773Z,64.34
2017-07-03T01:39:07.417Z,64.24
2017-07-03T01:39:32.978Z,64.34
2017-07-03T01:39:58.541Z,64.43
2017-07-03T01:40:24.107Z,64.43
2017-07-03T01:40:49.673Z,64.24
2017-07-03T01:41:15.256Z,64.24
2017-07-03T01:41:40.921Z,64.34
2017-07-03T01:42:06.480Z,64.24
2017-07-03T01:42:32.111Z,64.34
2017-07-03T01:42:57.667Z,64.43
2017-07-03T01:43:23.241Z,64.24
2017-07-03T01:43:48.801Z,64.05
2017-07-03T01:44:14.358Z,64.24
2017-07-03T01:44:39.942Z,64.05
2017-07-03T01:45:05.501Z,64.34
2017-07-03T01:45:31.064Z,63.85
2017-07-03T01:45:56.610Z,63.85
2017-07-03T01:46:22.168Z,63.85
2017-07-03T01:46:47.776Z,63.85
2017-07-03T01:47:13.378Z,64.15
2017-07-03T01:47:38.943Z,63.85
2017-07-03T01:48:04.497Z,64.05
2017-07-03T01:48:30.111Z,64.34
2017-07-03T01:48:55.659Z,64.24
2017-07-03T01:49:21.245Z,64.15
2017-07-03T01:49:46.874Z,64.15
2017-07-03T01:50:12.430Z,64.24
2017-07-03T01:50:37.992Z,64.24
2017-07-03T01:51:03.556Z,64.24
2017-07-03T01:51:29.121Z,63.95
2017-07-03T01:51:54.692Z,63.85
2017-07-03T01:52:20.245Z,63.76
2017-07-03T01:52:45.808Z,63.95
2017-07-03T01:53:11.373Z,64.43
2017-07-03T01:53:37.079Z,64.15
2017-07-03T01:54:02.651Z,64.24
2017-07-03T01:54:28.217Z,64.34
2017-07-03T01:54:53.783Z,64.15
2017-07-03T01:55:19.342Z,64.15
2017-07-03T01:55:44.938Z,63.85
2017-07-03T01:56:10.565Z,63.85
2017-07-03T01:56:36.132Z,63.76
2017-07-03T01:57:01.686Z,63.76
2017-07-03T01:57:27.256Z,63.85
2017-07-03T01:57:52.812Z,64.15
2017-07-03T01:58:18.395Z,63.76
2017-07-03T01:58:43.973Z,63.85
2017-07-03T01:59:09.531Z,63.85
2017-07-03T01:59:35.087Z,63.76
2017-07-03T02:00:00.718Z,63.76
2017-07-03T02:00:26.266Z,63.67
2017-07-03T02:00:51.821Z,63.76
2017-07-03T02:01:17.477Z,63.85
2017-07-03T02:01:43.021Z,64.15
2017-07-03T02:02:08.649Z,64.05
2017-07-03T02:02:34.207Z,64.15
2017-07-03T02:02:59.799Z,64.15
2017-07-03T02:03:25.361Z,63.95
2017-07-03T02:03:50.934Z,63.95
2017-07-03T02:04:16.499Z,64.15
2017-07-03T02:04:42.057Z,64.43
2017-07-03T02:05:07.625Z,64.24
2017-07-03T02:05:33.181Z,64.34
2017-07-03T02:05:58.738Z,64.24
2017-07-03T02:06:24.315Z,64.15
2017-07-03T02:06:49.962Z,64.43
2017-07-03T02:07:15.510Z,64.24
2017-07-03T02:07:41.067Z,63.76
2017-07-03T02:08:06.639Z,64.15
2017-07-03T02:08:32.203Z,64.34
2017-07-03T02:08:57.768Z,64.24
2017-07-03T02:09:23.375Z,64.24
2017-07-03T02:09:48.938Z,64.05
2017-07-03T02:10:14.509Z,64.34
2017-07-03T02:10:40.067Z,64.34
2017-07-03T02:11:05.629Z,64.24
2017-07-03T02:11:31.187Z,64.34
2017-07-03T02:11:56.878Z,64.24
2017-07-03T02:12:22.436Z,64.15
2017-07-03T02:12:48.002Z,64.34
2017-07-03T02:13:13.587Z,64.15
2017-07-03T02:13:39.150Z,63.85
2017-07-03T02:14:04.717Z,63.95
2017-07-03T02:14:30.287Z,64.34
2017-07-03T02:14:55.840Z,63.85
2017-07-03T02:15:21.385Z,63.95
2017-07-03T02:15:46.964Z,64.15
2017-07-03T02:16:12.526Z,64.15
2017-07-03T02:16:38.099Z,64.43
2017-07-03T02:17:03.774Z,64.24
2017-07-03T02:17:29.352Z,64.34
2017-07-03T02:17:54.909Z,64.15
2017-07-03T02:18:20.478Z,63.76
2017-07-03T02:18:46.026Z,64.15
2017-07-03T02:19:11.598Z,63.85
2017-07-03T02:19:37.246Z,63.85
2017-07-03T02:20:02.817Z,63.76
2017-07-03T02:20:28.385Z,63.85
2017-07-03T02:20:53.929Z,63.95
2017-07-03T02:21:19.517Z,63.76
2017-07-03T02:21:45.079Z,63.57
2017-07-03T02:22:10.650Z,63.85
2017-07-03T02:22:36.249Z,63.85
2017-07-03T02:23:01.797Z,64.05
2017-07-03T02:23:27.345Z,63.85
2017-07-03T02:23:52.898Z,63.76
2017-07-03T02:24:18.514Z,63.85
2017-07-03T02:24:44.071Z,63.95
2017-07-03T02:25:09.621Z,63.85
2017-07-03T02:25:35.192Z,63.76
2017-07-03T02:26:00.755Z,63.95
2017-07-03T02:26:26.391Z,63.85
2017-07-03T02:26:51.958Z,63.85
2017-07-03T02:27:17.509Z,64.15
2017-07-03T02:27:43.200Z,64.34
2017-07-03T02:28:08.778Z,64.05
2017-07-03T02:28:34.329Z,64.24
2017-07-03T02:28:59.984Z,64.34
2017-07-03T02:29:25.571Z,64.24
2017-07-03T02:29:51.118Z,64.15
2017-07-03T02:30:16.669Z,63.85
2017-07-03T02:30:42.243Z,63.95
2017-07-03T02:31:07.800Z,63.76
2017-07-03T02:31:33.354Z,63.85
2017-07-03T02:31:58.902Z,63.85
2017-07-03T02:32:24.490Z,64.05
2017-07-03T02:32:50.050Z,63.85
2017-07-03T02:33:15.729Z,63.76
2017-07-03T02:33:41.289Z,63.76
2017-07-03T02:34:06.916Z,63.85
2017-07-03T02:34:32.470Z,63.85
2017-07-03T02:34:58.040Z,63.85
2017-07-03T02:35:23.600Z,64.24
2017-07-03T02:35:49.210Z,64.15
2017-07-03T02:36:14.798Z,64.15
2017-07-03T02:36:40.330Z,64.34
2017-07-03T02:37:05.952Z,64.43
2017-07-03T02:37:31.520Z,64.24
2017-07-03T02:37:57.096Z,64.24
2017-07-03T02:38:22.675Z,64.24
2017-07-03T02:38:48.230Z,64.24
2017-07-03T02:39:13.814Z,64.24
2017-07-03T02:39:39.407Z,64.34
2017-07-03T02:40:04.963Z,64.24
2017-07-03T02:40:30.526Z,64.15
2017-07-03T02:40:56.075Z,63.85
2017-07-03T02:41:21.632Z,63.76
2017-07-03T02:41:47.246Z,63.57
2017-07-03T02:42:12.803Z,63.85
2017-07-03T02:42:38.371Z,63.85
2017-07-03T02:43:03.931Z,63.67
2017-07-03T02:43:29.577Z,63.67
2017-07-03T02:43:55.133Z,63.85
2017-07-03T02:44:20.727Z,63.85
2017-07-03T02:44:46.360Z,63.67
2017-07-03T02:45:11.917Z,63.57
2017-07-03T02:45:37.523Z,63.67
2017-07-03T02:46:03.097Z,63.67
2017-07-03T02:46:28.646Z,63.76
2017-07-03T02:46:54.209Z,63.76
2017-07-03T02:47:19.829Z,63.85
2017-07-03T02:47:45.439Z,63.67
2017-07-03T02:48:10.993Z,64.24
2017-07-03T02:48:36.557Z,63.76
2017-07-03T02:49:02.126Z,63.85
2017-07-03T02:49:27.686Z,63.85
2017-07-03T02:49:53.257Z,64.24
2017-07-03T02:50:18.836Z,63.67
2017-07-03T02:50:44.401Z,63.85
2017-07-03T02:51:09.959Z,63.76
2017-07-03T02:51:35.574Z,63.76
2017-07-03T02:52:01.119Z,63.76
2017-07-03T02:52:26.730Z,63.95
2017-07-03T02:52:52.299Z,64.15
2017-07-03T02:53:17.848Z,63.76
2017-07-03T02:53:43.410Z,63.85
2017-07-03T02:54:08.982Z,63.76
2017-07-03T02:54:34.556Z,63.85
2017-07-03T02:55:00.113Z,63.57
2017-07-03T02:55:25.701Z,63.67
2017-07-03T02:55:51.251Z,64.05
2017-07-03T02:56:16.810Z,63.85
2017-07-03T02:56:42.372Z,63.67
2017-07-03T02:57:07.960Z,63.76
2017-07-03T02:57:33.597Z,63.85
2017-07-03T02:57:59.195Z,63.67
2017-07-03T02:58:24.747Z,64.15
2017-07-03T02:58:50.305Z,63.76
2017-07-03T02:59:15.953Z,63.85
2017-07-03T02:59:41.511Z,63.67
2017-07-03T03:00:07.060Z,63.85
2017-07-03T03:00:32.619Z,63.95
2017-07-03T03:00:58.181Z,63.85
2017-07-03T03:01:23.733Z,63.85
2017-07-03T03:01:49.284Z,64.05
2017-07-03T03:02:14.863Z,64.05
2017-07-03T03:02:40.508Z,63.76
2017-07-03T03:03:06.048Z,63.67
2017-07-03T03:03:31.606Z,64.05
2017-07-03T03:03:57.179Z,63.85
2017-07-03T03:04:22.748Z,64.24
2017-07-03T03:04:48.310Z,63.85
2017-07-03T03:05:14.000Z,63.95
2017-07-03T03:05:39.606Z,63.95
2017-07-03T03:06:05.167Z,63.67
2017-07-03T03:06:30.744Z,63.76
2017-07-03T03:06:56.365Z,63.85
2017-07-03T03:07:21.938Z,63.85
2017-07-03T03:07:47.488Z,63.67
2017-07-03T03:08:13.047Z,63.67
2017-07-03T03:08:38.745Z,63.67
2017-07-03T03:09:04.310Z,63.85
2017-07-03T03:09:29.926Z,63.85
2017-07-03T03:09:55.520Z,64.05
2017-07-03T03:10:21.089Z,63.95
2017-07-03T03:10:46.659Z,63.85
2017-07-03T03:11:12.206Z,63.85
2017-07-03T03:11:37.778Z,63.76
2017-07-03T03:12:03.320Z,63.76
2017-07-03T03:12:28.880Z,63.95
2017-07-03T03:12:54.438Z,64.53
2017-07-03T03:13:19.990Z,64.05
2017-07-03T03:13:45.561Z,64.05
2017-07-03T03:14:11.149Z,63.76
2017-07-03T03:14:36.720Z,63.85
2017-07-03T03:15:02.382Z,63.85
2017-07-03T03:15:27.939Z,64.24
2017-07-03T03:15:53.586Z,63.76
2017-07-03T03:16:19.118Z,63.67
2017-07-03T03:16:44.671Z,63.85
2017-07-03T03:17:10.221Z,63.67
2017-07-03T03:17:35.924Z,63.85
2017-07-03T03:18:01.438Z,63.67
2017-07-03T03:18:27.009Z,63.67
2017-07-03T03:18:52.578Z,63.67
2017-07-03T03:19:18.125Z,63.67
2017-07-03T03:19:43.686Z,63.67
2017-07-03T03:20:09.332Z,63.76
2017-07-03T03:20:34.890Z,63.85
2017-07-03T03:21:00.453Z,64.05
2017-07-03T03:21:26.020Z,63.85
2017-07-03T03:21:51.565Z,63.67
2017-07-03T03:22:17.115Z,63.67
2017-07-03T03:22:42.675Z,63.95
2017-07-03T03:23:08.274Z,63.85
2017-07-03T03:23:33.843Z,63.57
2017-07-03T03:23:59.386Z,63.85
2017-07-03T03:24:24.958Z,63.85
2017-07-03T03:24:50.559Z,63.67
2017-07-03T03:25:16.208Z,63.57
2017-07-03T03:25:41.851Z,63.67
2017-07-03T03:26:07.406Z,63.85
2017-07-03T03:26:32.970Z,63.85
2017-07-03T03:26:58.530Z,63.85
2017-07-03T03:27:24.091Z,63.85
2017-07-03T03:27:49.678Z,63.85
2017-07-03T03:28:15.242Z,63.85
2017-07-03T03:28:40.794Z,63.76
2017-07-03T03:29:06.350Z,64.34
2017-07-03T03:29:31.991Z,64.24
2017-07-03T03:29:57.562Z,63.95
2017-07-03T03:30:23.146Z,64.05
2017-07-03T03:30:48.778Z,63.85
2017-07-03T03:31:14.327Z,63.85
2017-07-03T03:31:39.870Z,63.85
2017-07-03T03:32:05.449Z,64.15
2017-07-03T03:32:31.001Z,64.24
2017-07-03T03:32:56.558Z,63.95
2017-07-03T03:33:22.191Z,63.95
2017-07-03T03:33:47.699Z,63.95
2017-07-03T03:34:13.256Z,64.43
2017-07-03T03:34:38.862Z,63.76
2017-07-03T03:35:04.447Z,63.85
2017-07-03T03:35:30.010Z,63.85
2017-07-03T03:35:55.661Z,63.85
2017-07-03T03:36:21.205Z,63.95
2017-07-03T03:36:46.770Z,63.76
2017-07-03T03:37:12.336Z,63.57
2017-07-03T03:37:37.890Z,64.05
2017-07-03T03:38:03.509Z,64.15
2017-07-03T03:38:29.068Z,64.24
2017-07-03T03:38:54.719Z,63.85
2017-07-03T03:39:20.278Z,63.85
2017-07-03T03:39:45.888Z,64.15
2017-07-03T03:40:11.448Z,63.85
2017-07-03T03:40:37.791Z,63.85
2017-07-03T03:41:02.566Z,63.76
2017-07-03T03:41:28.250Z,63.95
2017-07-03T03:41:53.826Z,64.43
2017-07-03T03:42:19.390Z,63.76
2017-07-03T03:42:44.948Z,63.76
2017-07-03T03:43:10.499Z,64.05
2017-07-03T03:43:36.060Z,64.15
2017-07-03T03:44:01.634Z,64.15
2017-07-03T03:44:27.200Z,64.05
2017-07-03T03:44:52.769Z,64.05
2017-07-03T03:45:18.347Z,63.95
2017-07-03T03:45:43.908Z,63.85
2017-07-03T03:46:09.507Z,63.85
2017-07-03T03:46:35.154Z,63.76
2017-07-03T03:47:00.729Z,63.76
2017-07-03T03:47:26.280Z,63.67
2017-07-03T03:47:51.926Z,63.76
2017-07-03T03:48:17.491Z,63.85
2017-07-03T03:48:43.046Z,64.24
2017-07-03T03:49:08.605Z,63.76
2017-07-03T03:49:34.169Z,63.76
2017-07-03T03:49:59.740Z,64.53
2017-07-03T03:50:25.310Z,63.85
2017-07-03T03:50:50.886Z,63.76
2017-07-03T03:51:16.446Z,64.34
2017-07-03T03:51:42.005Z,64.05
2017-07-03T03:52:07.592Z,63.76
2017-07-03T03:52:33.139Z,63.67
2017-07-03T03:52:58.770Z,63.76
2017-07-03T03:53:24.347Z,63.76
2017-07-03T03:53:49.895Z,63.85
2017-07-03T03:54:15.493Z,63.67
2017-07-03T03:54:41.049Z,63.57
2017-07-03T03:55:06.599Z,63.85
2017-07-03T03:55:32.253Z,63.85
2017-07-03T03:55:57.820Z,63.76
2017-07-03T03:56:23.368Z,63.85
2017-07-03T03:56:48.928Z,63.76
2017-07-03T03:57:14.548Z,63.67
2017-07-03T03:57:40.108Z,63.57
2017-07-03T03:58:05.674Z,63.67
2017-07-03T03:58:31.392Z,63.95
2017-07-03T03:58:56.944Z,63.85
2017-07-03T03:59:22.527Z,63.76
2017-07-03T03:59:48.089Z,63.67
2017-07-03T04:00:13.673Z,63.67
2017-07-03T04:00:39.250Z,63.95
2017-07-03T04:01:04.947Z,63.95
2017-07-03T04:01:30.591Z,64.24
2017-07-03T04:01:56.175Z,64.05
2017-07-03T04:02:21.739Z,63.67
2017-07-03T04:02:47.306Z,63.85
2017-07-03T04:03:12.856Z,63.76
2017-07-03T04:03:38.440Z,64.15
2017-07-03T04:04:04.072Z,64.05
2017-07-03T04:04:29.621Z,64.34
2017-07-03T04:04:55.181Z,64.24
2017-07-03T04:05:20.859Z,64.05
2017-07-03T04:05:46.453Z,63.85
2017-07-03T04:06:12.029Z,64.05
2017-07-03T04:06:37.577Z,64.15
2017-07-03T04:07:03.156Z,63.95
2017-07-03T04:07:28.718Z,64.43
2017-07-03T04:07:54.299Z,64.63
2017-07-03T04:08:19.872Z,63.85
2017-07-03T04:08:45.422Z,63.85
2017-07-03T04:09:10.957Z,63.76
2017-07-03T04:09:36.520Z,63.85
2017-07-03T04:10:02.087Z,63.57
2017-07-03T04:10:27.649Z,63.67
2017-07-03T04:10:53.210Z,63.95
2017-07-03T04:11:18.772Z,63.76
2017-07-03T04:11:44.441Z,63.85
2017-07-03T04:12:10.098Z,63.85
2017-07-03T04:12:35.647Z,63.85
2017-07-03T04:13:01.223Z,63.76
2017-07-03T04:13:26.765Z,63.85
2017-07-03T04:13:52.332Z,63.67
2017-07-03T04:14:17.989Z,63.85
2017-07-03T04:14:43.586Z,63.67
2017-07-03T04:15:09.159Z,63.67
2017-07-03T04:15:34.717Z,63.47
2017-07-03T04:16:00.339Z,63.76
2017-07-03T04:16:25.943Z,63.85
2017-07-03T04:16:51.498Z,63.85
2017-07-03T04:17:17.154Z,64.05
2017-07-03T04:17:42.791Z,63.76
2017-07-03T04:18:08.346Z,63.57
2017-07-03T04:18:33.920Z,63.67
2017-07-03T04:18:59.469Z,63.67
2017-07-03T04:19:25.041Z,63.76
2017-07-03T04:19:50.589Z,63.67
2017-07-03T04:20:16.217Z,63.95
2017-07-03T04:20:41.801Z,63.76
2017-07-03T04:21:07.360Z,63.57
2017-07-03T04:21:32.919Z,63.57
2017-07-03T04:21:58.483Z,63.76
2017-07-03T04:22:24.071Z,63.67
2017-07-03T04:22:49.691Z,63.67
2017-07-03T04:23:15.255Z,63.57
2017-07-03T04:23:40.862Z,63.76
2017-07-03T04:24:06.456Z,63.76
2017-07-03T04:24:32.017Z,63.85
2017-07-03T04:24:57.563Z,63.76
2017-07-03T04:25:23.156Z,63.76
2017-07-03T04:25:48.750Z,63.67
2017-07-03T04:26:14.293Z,63.95
2017-07-03T04:26:39.870Z,63.57
2017-07-03T04:27:05.438Z,63.57
2017-07-03T04:27:31.009Z,63.67
2017-07-03T04:27:56.567Z,63.67
2017-07-03T04:28:22.140Z,63.67
2017-07-03T04:28:47.692Z,63.76
2017-07-03T04:29:13.364Z,63.76
2017-07-03T04:29:38.926Z,63.76
2017-07-03T04:30:04.497Z,63.85
2017-07-03T04:30:30.043Z,63.67
2017-07-03T04:30:55.606Z,63.67
2017-07-03T04:31:21.170Z,63.85
2017-07-03T04:31:46.735Z,63.76
2017-07-03T04:32:12.353Z,63.76
2017-07-03T04:32:37.914Z,63.95
2017-07-03T04:33:03.483Z,63.67
2017-07-03T04:33:29.149Z,63.85
2017-07-03T04:33:54.737Z,63.67
2017-07-03T04:34:20.318Z,63.85
2017-07-03T04:34:45.866Z,63.95
2017-07-03T04:35:11.424Z,63.85
2017-07-03T04:35:36.972Z,63.76
2017-07-03T04:36:02.549Z,63.95
2017-07-03T04:36:28.121Z,63.76
2017-07-03T04:36:53.687Z,64.24
2017-07-03T04:37:19.244Z,64.05
2017-07-03T04:37:44.806Z,64.05
2017-07-03T04:38:10.417Z,64.43
2017-07-03T04:38:35.986Z,63.76
2017-07-03T04:39:01.529Z,64.24
2017-07-03T04:39:27.155Z,63.95
2017-07-03T04:39:52.729Z,63.76
2017-07-03T04:40:18.287Z,63.85
2017-07-03T04:40:43.845Z,63.85
2017-07-03T04:41:09.469Z,64.15
2017-07-03T04:41:35.030Z,63.85
2017-07-03T04:42:00.581Z,63.76
2017-07-03T04:42:26.147Z,64.05
2017-07-03T04:42:51.706Z,63.76
2017-07-03T04:43:17.261Z,63.57
2017-07-03T04:43:42.796Z,63.57
2017-07-03T04:44:08.378Z,63.85
2017-07-03T04:44:33.938Z,63.85
2017-07-03T04:44:59.508Z,64.24
2017-07-03T04:45:25.076Z,64.24
2017-07-03T04:45:50.636Z,63.76
2017-07-03T04:46:16.301Z,64.05
2017-07-03T04:46:41.877Z,63.85
2017-07-03T04:47:07.439Z,63.85
2017-07-03T04:47:33.050Z,64.24
2017-07-03T04:47:58.625Z,64.05
2017-07-03T04:48:24.221Z,63.85
2017-07-03T04:48:49.772Z,63.67
2017-07-03T04:49:15.337Z,63.76
2017-07-03T04:49:40.917Z,63.95
2017-07-03T04:50:06.590Z,63.76
2017-07-03T04:50:32.204Z,63.85
2017-07-03T04:50:57.750Z,63.85
2017-07-03T04:51:23.313Z,63.85
2017-07-03T04:51:48.910Z,63.95
2017-07-03T04:52:14.506Z,63.95
2017-07-03T04:52:40.060Z,63.85
2017-07-03T04:53:05.684Z,63.95
2017-07-03T04:53:31.238Z,63.76
2017-07-03T04:53:56.798Z,63.85
2017-07-03T04:54:22.414Z,63.76
2017-07-03T04:54:47.980Z,63.85
2017-07-03T04:55:13.554Z,63.95
2017-07-03T04:55:39.139Z,63.76
2017-07-03T04:56:04.740Z,63.85
2017-07-03T04:56:30.304Z,64.05
2017-07-03T04:56:55.859Z,63.85
2017-07-03T04:57:21.418Z,63.76
2017-07-03T04:57:46.996Z,64.34
2017-07-03T04:58:12.613Z,64.15
2017-07-03T04:58:38.174Z,64.05
2017-07-03T04:59:03.739Z,64.43
2017-07-03T04:59:29.365Z,64.24
2017-07-03T04:59:54.914Z,63.76
2017-07-03T05:00:20.464Z,64.15
2017-07-03T05:00:46.074Z,64.05
2017-07-03T05:01:11.629Z,64.34
2017-07-03T05:01:37.195Z,64.05
2017-07-03T05:02:02.792Z,63.85
2017-07-03T05:02:28.328Z,63.95
2017-07-03T05:02:53.904Z,63.57
2017-07-03T05:03:19.467Z,63.85
2017-07-03T05:03:45.145Z,63.76
2017-07-03T05:04:10.718Z,64.05
2017-07-03T05:04:36.345Z,64.34
2017-07-03T05:05:01.903Z,63.95
2017-07-03T05:05:27.458Z,64.05
2017-07-03T05:05:53.053Z,63.85
2017-07-03T05:06:18.632Z,64.05
2017-07-03T05:06:44.187Z,64.05
2017-07-03T05:07:09.774Z,63.67
2017-07-03T05:07:35.340Z,63.85
2017-07-03T05:08:00.899Z,63.67
2017-07-03T05:08:26.458Z,63.95
2017-07-03T05:08:52.076Z,63.95
2017-07-03T05:09:17.646Z,63.67
2017-07-03T05:09:43.217Z,63.85
2017-07-03T05:10:08.847Z,64.05
2017-07-03T05:10:34.406Z,63.57
2017-07-03T05:10:59.996Z,63.85
2017-07-03T05:11:25.557Z,63.85
2017-07-03T05:11:51.126Z,63.76
2017-07-03T05:12:16.693Z,63.76
2017-07-03T05:12:42.298Z,63.76
2017-07-03T05:13:07.911Z,63.85
2017-07-03T05:13:33.470Z,63.85
2017-07-03T05:13:59.027Z,63.85
2017-07-03T05:14:24.630Z,63.85
2017-07-03T05:14:50.218Z,64.05
2017-07-03T05:15:15.776Z,63.67
2017-07-03T05:15:41.335Z,63.67
2017-07-03T05:16:06.898Z,63.76
2017-07-03T05:16:32.446Z,63.76
2017-07-03T05:16:57.993Z,63.85
2017-07-03T05:17:23.598Z,63.67
2017-07-03T05:17:49.219Z,63.67
2017-07-03T05:18:14.804Z,63.67
2017-07-03T05:18:40.366Z,63.85
2017-07-03T05:19:05.910Z,63.76
2017-07-03T05:19:31.530Z,63.76
2017-07-03T05:19:57.115Z,63.85
2017-07-03T05:20:22.675Z,63.67
2017-07-03T05:20:48.275Z,63.67
2017-07-03T05:21:13.792Z,63.85
2017-07-03T05:21:39.355Z,63.85
2017-07-03T05:22:05.010Z,63.67
2017-07-03T05:22:30.588Z,63.67
2017-07-03T05:22:56.132Z,63.67
2017-07-03T05:23:21.740Z,63.67
2017-07-03T05:23:47.296Z,63.67
2017-07-03T05:24:12.847Z,63.57
2017-07-03T05:24:38.438Z,64.15
2017-07-03T05:25:04.007Z,63.85
2017-07-03T05:25:29.567Z,63.85
2017-07-03T05:25:55.159Z,64.15
2017-07-03T05:26:20.735Z,63.85
2017-07-03T05:27:35.055Z,64.15
2017-07-03T05:28:00.605Z,64.24
2017-07-03T05:28:26.256Z,64.34
2017-07-03T05:28:51.892Z,64.24
2017-07-03T05:29:17.436Z,64.34
2017-07-03T05:29:42.986Z,64.43
2017-07-03T05:30:08.578Z,64.34
2017-07-03T05:30:34.134Z,64.34
2017-07-03T05:30:59.690Z,64.24
2017-07-03T05:31:25.254Z,64.43
2017-07-03T05:31:50.810Z,64.24